Portada
METAR-TAF:

METAR-TAF

Aeropuertos :

Olivia Regional Airport

Olivia, Minnesota, Estados Unidos

latitud: 44-46-43N, longitud: 095-01-58W, altitud: 328 m

Observación

El informe se hizo hace 7 minutos, a las 05:56 UTC
Viento 3 kt del este-sureste
Temperatura 12°C
Humedad 38%
Presión 1025 hPa
Visibilidad: 16.1 km
Cielo despejado

METAR: KOVL 310556Z AUTO 11003KT 10SM CLR 12/M02 A3026 RMK AO2

Hora: 01:03 (06:03 UTC)


TAF: falta

Observaciones y pronósticos meteorológicos de más de 4000 aeropuertos (mensajes METAR y TAF).

Los puntos amarillos y rojos representan las estaciones disponibles.

Ponga el ratón en el punto deseado para ver el nombre de la estación.

Haga clic para ver las observaciones y los pronósticos meteorológicos.

Para cambiar el mapa : haga clic en los botones verdes con una cruz de color negro para hacer un zoom, en el botón verde con un guión para alejar o en las flechas verdes para mapas adyacentes.


METAR-TAF: